Time;durP1;ratioP1;P1;durP2;ratioP2;P2;SDS_P1;SDS_P2;PMS_P1;PMS_P2;Temp;Humidity;BMP_temperature;BMP_pressure;BME280_temperature;BME280_humidity;BME280_pressure;Samples;Min_cycle;Max_cycle;Signal;HPM_P1;HPM_P2
2021/03/06 05:00:16;;;;;;;;;;;-0.60;99.90;;;;;;6107894;22;19933;-66
2021/03/06 05:02:42;;;;;;;;;;;-0.60;99.90;;;;;;5034341;28;20379;-66
2021/03/06 05:05:09;;;;;;;;;;;-0.60;99.90;;;;;;5034046;28;19929;-66
2021/03/06 05:07:35;;;;;;;;;;;-0.50;99.90;;;;;;5035035;28;20311;-66
2021/03/06 05:10:02;;;;;;;;;;;-0.50;99.90;;;;;;5035959;28;19928;-66
2021/03/06 05:12:28;;;;;;;;;;;-0.50;99.90;;;;;;5038277;28;19925;-66
2021/03/06 05:14:54;;;;;;;;;;;-0.40;99.90;;;;;;5037850;28;20268;-66
2021/03/06 05:17:21;;;;;;;;;;;-0.60;99.90;;;;;;5074003;22;19924;-62
2021/03/06 05:19:47;;;;;;;;;;;-0.50;99.90;;;;;;5057051;28;19936;-62
2021/03/06 05:22:13;;;;;;;;;;;-0.60;99.90;;;;;;5056981;28;19925;-62
2021/03/06 05:24:39;;;;;;;;;;;-0.60;99.90;;;;;;5057409;28;19928;-62
2021/03/06 05:27:06;;;;;;;;;;;-0.70;99.90;;;;;;5056878;28;19931;-62
2021/03/06 05:29:32;;;;;;;;;;;-0.70;99.90;;;;;;5056960;28;20390;-62
2021/03/06 05:31:59;;;;;;;;;;;-0.70;99.90;;;;;;5063047;28;19924;-63
2021/03/06 05:34:26;;;;;;;;;;;-0.70;99.90;;;;;;5059891;28;19925;-63
2021/03/06 05:36:52;;;;;;;;;;;-0.60;99.90;;;;;;5056981;28;20402;-63
2021/03/06 05:39:18;;;;;;;;;;;-0.70;99.90;;;;;;5056974;28;19925;-64
2021/03/06 05:41:45;;;;;;;;;;;-0.80;99.90;;;;;;5057572;28;19929;-63
2021/03/06 05:44:11;;;;;;;;;;;-0.80;99.90;;;;;;5057327;28;20000;-62
2021/03/06 05:46:37;;;;;;;;;;;-0.70;99.90;;;;;;5057304;28;19925;-63
2021/03/06 05:49:04;;;;;;;;;;;-0.70;99.90;;;;;;5056919;28;19925;-64
2021/03/06 05:51:33;;;;;;;;;;;-0.70;99.90;;;;;;5057076;28;19970;-64
2021/03/06 05:53:59;;;;;;;;;;;-0.80;99.90;;;;;;5057187;28;19924;-63
2021/03/06 05:56:26;;;;;;;;;;;-0.80;99.90;;;;;;5056981;28;19986;-63
2021/03/06 05:58:52;;;;;;;;;;;-0.90;99.90;;;;;;5057643;28;19932;-63
2021/03/06 06:01:18;;;;;;;;;;;-0.90;99.90;;;;;;5057387;28;19931;-62
2021/03/06 06:03:45;;;;;;;;;;;-0.90;99.90;;;;;;5056759;28;19937;-63
2021/03/06 06:06:12;;;;;;;;;;;-0.90;99.90;;;;;;5056835;28;19925;-64
2021/03/06 06:08:40;;;;;;;;;;;-0.90;99.90;;;;;;5056377;28;19926;-63
2021/03/06 06:11:06;;;;;;;;;;;-1.00;99.90;;;;;;5056117;28;19994;-63
2021/03/06 06:13:32;;;;;;;;;;;-0.90;99.90;;;;;;5056019;28;19932;-63
2021/03/06 06:15:58;;;;;;;;;;;-1.00;99.90;;;;;;5055740;28;19932;-63
2021/03/06 06:18:25;;;;;;;;;;;-1.00;99.90;;;;;;5055915;28;19925;-63
2021/03/06 06:20:51;;;;;;;;;;;-1.10;99.90;;;;;;5055931;28;19928;-63
2021/03/06 06:23:18;;;;;;;;;;;-1.10;99.90;;;;;;5055783;28;19929;-63
2021/03/06 06:25:45;;;;;;;;;;;-1.00;99.90;;;;;;5055561;28;20402;-63
2021/03/06 06:28:11;;;;;;;;;;;-1.00;99.90;;;;;;5056438;28;19924;-62
2021/03/06 06:30:37;;;;;;;;;;;-1.00;99.90;;;;;;5055716;28;20341;-63
2021/03/06 06:33:03;;;;;;;;;;;-1.00;99.90;;;;;;5055662;28;19924;-63
2021/03/06 06:35:38;;;;;;;;;;;-0.90;99.90;;;;;;5055609;28;19936;-63
2021/03/06 06:38:05;;;;;;;;;;;-0.90;99.90;;;;;;5055631;28;20334;-63
2021/03/06 06:40:32;;;;;;;;;;;-0.90;99.90;;;;;;5055622;28;19975;-63
2021/03/06 06:43:00;;;;;;;;;;;-0.80;99.90;;;;;;5055452;28;19925;-61
2021/03/06 06:45:35;;;;;;;;;;;-0.70;99.90;;;;;;5055629;28;19932;-61
2021/03/06 06:48:08;;;;;;;;;;;-0.80;99.90;;;;;;5055407;28;19932;-63
2021/03/06 06:50:34;;;;;;;;;;;-0.80;99.90;;;;;;5055397;28;19924;-62
2021/03/06 06:53:00;;;;;;;;;;;-0.80;99.90;;;;;;5056074;28;19947;-62
2021/03/06 06:55:33;;;;;;;;;;;-0.70;99.90;;;;;;5055095;28;19925;-62
2021/03/06 06:58:00;;;;;;;;;;;-0.60;99.90;;;;;;5055483;28;19925;-62
2021/03/06 07:00:28;;;;;;;;;;;0.10;99.90;;;;;;5055100;28;19924;-62
2021/03/06 07:02:55;;;;;;;;;;;0.70;99.90;;;;;;5055121;28;20390;-62
2021/03/06 07:05:28;;;;;;;;;;;1.50;99.90;;;;;;5055158;28;19931;-63
2021/03/06 07:07:55;;;;;;;;;;;2.30;99.90;;;;;;5055185;28;19924;-63
2021/03/06 07:10:21;;;;;;;;;;;2.90;99.90;;;;;;5058184;28;19925;-64
2021/03/06 07:12:55;;;;;;;;;;;3.70;99.90;;;;;;5059090;28;19925;-64
2021/03/06 07:15:23;;;;;;;;;;;4.30;99.90;;;;;;5055119;28;19925;-65
2021/03/06 07:17:50;;;;;;;;;;;4.80;99.90;;;;;;5054611;28;20343;-63
2021/03/06 07:20:30;;;;;;;;;;;5.30;99.90;;;;;;5054633;28;19961;-63
2021/03/06 07:22:57;;;;;;;;;;;5.40;97.90;;;;;;5054980;28;19925;-63
2021/03/06 07:25:25;;;;;;;;;;;5.60;96.30;;;;;;5054826;28;19925;-63
2021/03/06 07:27:51;;;;;;;;;;;6.00;99.90;;;;;;5054935;28;19932;-63
2021/03/06 07:30:17;;;;;;;;;;;5.80;96.20;;;;;;5054666;28;19929;-65
2021/03/06 07:32:45;;;;;;;;;;;6.30;94.10;;;;;;5053885;28;19932;-64
2021/03/06 07:35:13;;;;;;;;;;;6.40;98.40;;;;;;5054446;28;19924;-65
2021/03/06 07:37:39;;;;;;;;;;;6.80;93.00;;;;;;5054350;28;19932;-64
2021/03/06 07:40:06;;;;;;;;;;;7.30;90.70;;;;;;5055222;28;19931;-65
2021/03/06 07:42:36;;;;;;;;;;;7.60;88.30;;;;;;5055593;28;19924;-64
2021/03/06 07:45:03;;;;;;;;;;;8.10;86.90;;;;;;5058483;28;19924;-64
2021/03/06 07:47:32;;;;;;;;;;;8.40;83.40;;;;;;5058139;28;20351;-64
2021/03/06 07:50:00;;;;;;;;;;;8.50;81.20;;;;;;5057078;28;19924;-65
2021/03/06 07:52:27;;;;;;;;;;;8.60;79.90;;;;;;5055195;28;19936;-65
2021/03/06 07:54:54;;;;;;;;;;;8.70;79.70;;;;;;5054323;28;19925;-64
2021/03/06 07:57:20;;;;;;;;;;;9.60;77.10;;;;;;5054172;28;19924;-64
2021/03/06 07:59:47;;;;;;;;;;;9.80;74.80;;;;;;5054666;28;19924;-64
2021/03/06 08:02:32;;;;;;;;;;;10.60;70.10;;;;;;5054157;28;19972;-64
2021/03/06 08:04:59;;;;;;;;;;;11.10;69.90;;;;;;5053981;28;19932;-63
2021/03/06 08:07:42;;;;;;;;;;;10.60;66.80;;;;;;5054145;28;19932;-64
2021/03/06 08:10:09;;;;;;;;;;;10.80;68.80;;;;;;5054286;28;19931;-64
2021/03/06 08:12:36;;;;;;;;;;;11.30;66.40;;;;;;5058506;28;20292;-64
2021/03/06 08:15:20;;;;;;;;;;;11.60;62.40;;;;;;5057976;28;19929;-64
2021/03/06 08:17:46;;;;;;;;;;;11.20;62.40;;;;;;5053608;28;19932;-64
2021/03/06 08:20:22;;;;;;;;;;;11.60;64.30;;;;;;5054102;28;20398;-63
2021/03/06 08:23:08;;;;;;;;;;;12.80;61.80;;;;;;5054242;28;19925;-63
2021/03/06 08:25:34;;;;;;;;;;;12.50;59.70;;;;;;5053429;28;20339;-64
2021/03/06 08:28:18;;;;;;;;;;;12.70;99.90;;;;;;5054155;28;20326;-64
2021/03/06 08:30:44;;;;;;;;;;;13.90;99.90;;;;;;5053713;28;19932;-64
2021/03/06 08:33:14;;;;;;;;;;;13.10;66.90;;;;;;5053685;28;19933;-64
2021/03/06 08:35:41;;;;;;;;;;;12.70;61.20;;;;;;5054036;28;19982;-64
2021/03/06 08:38:22;;;;;;;;;;;13.90;58.40;;;;;;5053487;28;19933;-65
2021/03/06 08:40:48;;;;;;;;;;;13.60;57.10;;;;;;5053460;28;19925;-63
2021/03/06 08:43:14;;;;;;;;;;;13.90;56.00;;;;;;5053883;28;19928;-65
2021/03/06 08:45:40;;;;;;;;;;;14.20;54.10;;;;;;5056271;28;19925;-64
2021/03/06 08:48:07;;;;;;;;;;;13.10;53.90;;;;;;5057527;28;19932;-65
2021/03/06 08:50:35;;;;;;;;;;;14.20;54.40;;;;;;5057674;28;19951;-63
2021/03/06 08:53:02;;;;;;;;;;;13.50;52.60;;;;;;5057464;28;19968;-65
2021/03/06 08:55:29;;;;;;;;;;;13.90;56.00;;;;;;5057336;28;19938;-65
2021/03/06 08:57:59;;;;;;;;;;;14.70;54.30;;;;;;5057404;28;19975;-63
2021/03/06 09:00:27;;;;;;;;;;;14.80;52.60;;;;;;5057611;28;19924;-63
2021/03/06 09:02:53;;;;;;;;;;;15.60;52.80;;;;;;5057557;28;19925;-62
2021/03/06 09:05:21;;;;;;;;;;;16.10;51.30;;;;;;5057394;28;19932;-63
2021/03/06 09:07:48;;;;;;;;;;;16.10;50.00;;;;;;5057406;28;19929;-64
2021/03/06 09:10:28;;;;;;;;;;;16.50;49.20;;;;;;5057153;28;20291;-62
2021/03/06 09:12:55;;;;;;;;;;;15.90;47.70;;;;;;5056933;28;20391;-63
2021/03/06 09:15:39;;;;;;;;;;;16.50;47.60;;;;;;5056920;28;20383;-63
2021/03/06 09:18:06;;;;;;;;;;;16.90;46.40;;;;;;5056653;28;19925;-64
2021/03/06 09:20:36;;;;;;;;;;;16.10;46.40;;;;;;5056865;28;19925;-65
2021/03/06 09:23:02;;;;;;;;;;;16.20;46.80;;;;;;5056975;28;19925;-64
2021/03/06 09:25:33;;;;;;;;;;;16.10;50.10;;;;;;5057088;28;19925;-65
2021/03/06 09:27:59;;;;;;;;;;;16.40;46.60;;;;;;5056868;28;19924;-65
2021/03/06 09:30:27;;;;;;;;;;;17.10;45.50;;;;;;5056736;28;19940;-64
2021/03/06 09:32:53;;;;;;;;;;;16.90;45.40;;;;;;5056869;28;20402;-63
2021/03/06 09:35:20;;;;;;;;;;;16.50;46.40;;;;;;5057214;28;19994;-63
2021/03/06 09:37:46;;;;;;;;;;;17.40;46.50;;;;;;5056916;28;19925;-65
2021/03/06 09:40:19;;;;;;;;;;;17.10;43.90;;;;;;5056806;28;19971;-64
2021/03/06 09:42:47;;;;;;;;;;;16.70;44.10;;;;;;5056807;28;20003;-63
2021/03/06 09:45:14;;;;;;;;;;;16.80;43.70;;;;;;5056588;28;19925;-63
2021/03/06 09:47:41;;;;;;;;;;;16.90;43.60;;;;;;5056555;28;19925;-63
2021/03/06 09:50:07;;;;;;;;;;;17.30;43.90;;;;;;5056627;28;19945;-63
2021/03/06 09:52:34;;;;;;;;;;;17.70;42.50;;;;;;5056563;28;19925;-63
2021/03/06 09:55:00;;;;;;;;;;;18.00;43.00;;;;;;5056467;28;19986;-64
2021/03/06 09:57:27;;;;;;;;;;;18.20;40.80;;;;;;5056225;28;19925;-64
2021/03/06 09:59:53;;;;;;;;;;;18.30;40.90;;;;;;5056325;28;19925;-64
2021/03/06 10:02:23;;;;;;;;;;;18.90;42.30;;;;;;5056452;28;19929;-63
2021/03/06 10:04:50;;;;;;;;;;;19.20;42.60;;;;;;5056284;28;20386;-63
2021/03/06 10:07:17;;;;;;;;;;;18.70;42.30;;;;;;5056083;28;19925;-63
2021/03/06 10:09:43;;;;;;;;;;;19.20;43.90;;;;;;5056320;28;19925;-63
2021/03/06 10:12:13;;;;;;;;;;;19.50;42.10;;;;;;5056012;28;19936;-63
2021/03/06 10:14:39;;;;;;;;;;;18.90;40.50;;;;;;5055906;28;19925;-63
2021/03/06 10:17:07;;;;;;;;;;;17.80;39.80;;;;;;5055543;28;19932;-63
2021/03/06 10:19:34;;;;;;;;;;;16.90;42.40;;;;;;5055645;28;19925;-63
2021/03/06 10:22:01;;;;;;;;;;;16.90;43.70;;;;;;5055579;28;19924;-63
2021/03/06 10:24:27;;;;;;;;;;;17.50;43.70;;;;;;5055802;28;19929;-63
2021/03/06 10:26:57;;;;;;;;;;;17.70;41.00;;;;;;5055873;28;19925;-63
2021/03/06 10:29:24;;;;;;;;;;;18.30;39.60;;;;;;5055756;28;19932;-63
2021/03/06 10:31:57;;;;;;;;;;;18.10;41.50;;;;;;5055561;28;19932;-63
2021/03/06 10:34:24;;;;;;;;;;;17.30;41.70;;;;;;5055523;28;19924;-63
2021/03/06 10:37:07;;;;;;;;;;;17.20;43.20;;;;;;5055695;28;20402;-63
2021/03/06 10:39:33;;;;;;;;;;;17.00;41.20;;;;;;5056123;28;20394;-63
2021/03/06 10:41:59;;;;;;;;;;;17.40;40.60;;;;;;5056738;28;19981;-63
2021/03/06 10:44:38;;;;;;;;;;;16.90;41.00;;;;;;5056936;28;19971;-64
2021/03/06 10:47:04;;;;;;;;;;;17.50;42.00;;;;;;5056919;28;20299;-63
2021/03/06 10:49:35;;;;;;;;;;;17.40;39.40;;;;;;5056606;28;19932;-64
2021/03/06 10:52:01;;;;;;;;;;;16.60;41.20;;;;;;5056467;28;19974;-64
2021/03/06 10:54:27;;;;;;;;;;;16.40;40.90;;;;;;5058106;28;19929;-63
2021/03/06 10:57:03;;;;;;;;;;;17.00;41.60;;;;;;5057418;28;20398;-64
2021/03/06 10:59:33;;;;;;;;;;;17.10;39.30;;;;;;5056628;28;20402;-65
2021/03/06 11:01:59;;;;;;;;;;;16.80;41.60;;;;;;5055997;28;19975;-63
2021/03/06 11:04:26;;;;;;;;;;;17.10;38.80;;;;;;5056339;28;19925;-63
2021/03/06 11:06:58;;;;;;;;;;;16.30;40.30;;;;;;5055618;28;19932;-64
2021/03/06 11:09:26;;;;;;;;;;;16.20;38.60;;;;;;5056069;28;19933;-64
2021/03/06 11:11:52;;;;;;;;;;;15.80;39.80;;;;;;5056749;28;19929;-63
2021/03/06 11:14:26;;;;;;;;;;;15.40;39.90;;;;;;5055741;28;19925;-63
2021/03/06 11:16:52;;;;;;;;;;;15.00;42.30;;;;;;5056359;28;19925;-63
2021/03/06 11:19:18;;;;;;;;;;;14.20;41.40;;;;;;5055453;28;19929;-64
2021/03/06 11:21:44;;;;;;;;;;;13.70;41.20;;;;;;5055691;28;19932;-63
2021/03/06 11:24:11;;;;;;;;;;;13.20;42.80;;;;;;5055477;28;19925;-64
2021/03/06 11:26:37;;;;;;;;;;;12.60;42.30;;;;;;5055465;28;19929;-64
2021/03/06 11:29:03;;;;;;;;;;;12.20;44.10;;;;;;5055456;28;19959;-63
2021/03/06 11:31:31;;;;;;;;;;;12.10;44.50;;;;;;5055134;28;19924;-63
2021/03/06 11:33:57;;;;;;;;;;;12.00;44.20;;;;;;5055252;28;19936;-63
2021/03/06 11:36:24;;;;;;;;;;;11.90;44.50;;;;;;5055049;28;19932;-64
2021/03/06 11:38:50;;;;;;;;;;;11.60;43.60;;;;;;5055328;28;19925;-63
2021/03/06 11:41:17;;;;;;;;;;;10.90;47.50;;;;;;5055379;28;19925;-64
2021/03/06 11:43:43;;;;;;;;;;;11.00;48.40;;;;;;5055043;28;20284;-64
2021/03/06 11:46:09;;;;;;;;;;;10.50;47.30;;;;;;5055248;28;19928;-63
2021/03/06 11:48:35;;;;;;;;;;;10.30;48.90;;;;;;5055168;28;19970;-63
2021/03/06 11:51:01;;;;;;;;;;;10.80;49.90;;;;;;5054963;28;19925;-64
2021/03/06 11:53:27;;;;;;;;;;;10.90;47.10;;;;;;5055598;28;19935;-64
2021/03/06 11:55:53;;;;;;;;;;;10.30;46.80;;;;;;5055212;28;19925;-64
2021/03/06 11:58:20;;;;;;;;;;;10.50;47.20;;;;;;5055721;28;19925;-65
2021/03/06 12:00:46;;;;;;;;;;;10.50;47.50;;;;;;5055101;28;19935;-64
2021/03/06 12:03:12;;;;;;;;;;;10.80;45.70;;;;;;5054774;28;19925;-65
2021/03/06 12:05:38;;;;;;;;;;;10.40;47.60;;;;;;5055093;28;19925;-65
2021/03/06 12:08:04;;;;;;;;;;;10.40;47.80;;;;;;5054976;28;19925;-66
2021/03/06 12:10:31;;;;;;;;;;;10.20;49.00;;;;;;5055214;28;20266;-67
2021/03/06 12:12:57;;;;;;;;;;;10.30;50.40;;;;;;5054628;28;20406;-66
2021/03/06 12:15:24;;;;;;;;;;;10.90;52.80;;;;;;5054877;28;19924;-64
2021/03/06 12:17:51;;;;;;;;;;;11.10;55.70;;;;;;5054608;28;19931;-66
2021/03/06 12:20:18;;;;;;;;;;;11.60;53.70;;;;;;5054512;28;19929;-65
2021/03/06 12:22:44;;;;;;;;;;;11.90;52.10;;;;;;5054057;28;20294;-64
2021/03/06 12:25:11;;;;;;;;;;;11.70;52.90;;;;;;5055112;28;19928;-65
2021/03/06 12:27:38;;;;;;;;;;;12.00;48.00;;;;;;5054618;28;19929;-64
2021/03/06 12:30:06;;;;;;;;;;;11.70;46.20;;;;;;5054340;28;19971;-65
2021/03/06 12:32:33;;;;;;;;;;;11.90;48.50;;;;;;5054607;28;19924;-67
2021/03/06 12:34:59;;;;;;;;;;;12.00;52.10;;;;;;5054331;28;19964;-65
2021/03/06 12:37:25;;;;;;;;;;;11.90;45.80;;;;;;5054714;28;19932;-64
2021/03/06 12:39:51;;;;;;;;;;;11.90;52.40;;;;;;5054672;28;19932;-65
2021/03/06 12:42:17;;;;;;;;;;;12.10;48.80;;;;;;5054551;28;19936;-65
2021/03/06 12:44:43;;;;;;;;;;;12.20;45.70;;;;;;5055063;28;19925;-66
2021/03/06 12:47:09;;;;;;;;;;;12.10;44.50;;;;;;5054579;28;19925;-65
2021/03/06 12:49:36;;;;;;;;;;;11.40;45.10;;;;;;5054385;28;19924;-64
2021/03/06 12:52:02;;;;;;;;;;;11.30;47.30;;;;;;5054804;28;20286;-65
2021/03/06 12:54:29;;;;;;;;;;;10.50;45.90;;;;;;5054853;28;19948;-67
2021/03/06 12:56:55;;;;;;;;;;;10.80;47.60;;;;;;5054202;28;19925;-64
2021/03/06 12:59:21;;;;;;;;;;;10.80;50.20;;;;;;5054281;28;19932;-64
2021/03/06 13:01:47;;;;;;;;;;;10.60;47.80;;;;;;5054205;28;19936;-65
2021/03/06 13:04:14;;;;;;;;;;;10.60;48.10;;;;;;5053805;28;19932;-64
2021/03/06 13:06:41;;;;;;;;;;;10.90;49.00;;;;;;5054110;28;19924;-65
2021/03/06 13:09:07;;;;;;;;;;;10.80;46.10;;;;;;5054283;28;19924;-65
2021/03/06 13:11:33;;;;;;;;;;;10.50;46.70;;;;;;5054477;28;19925;-65
2021/03/06 13:13:59;;;;;;;;;;;10.50;47.70;;;;;;5054193;28;20325;-65
2021/03/06 13:16:25;;;;;;;;;;;10.70;47.40;;;;;;5054063;28;19947;-65
2021/03/06 13:18:51;;;;;;;;;;;11.10;47.70;;;;;;5053824;28;19932;-64
2021/03/06 13:21:17;;;;;;;;;;;11.50;46.50;;;;;;5054096;28;19959;-66
2021/03/06 13:23:44;;;;;;;;;;;11.70;46.30;;;;;;5053950;28;20330;-65
2021/03/06 13:26:10;;;;;;;;;;;11.40;45.90;;;;;;5054169;28;19925;-64
2021/03/06 13:28:36;;;;;;;;;;;11.40;46.90;;;;;;5054480;28;19925;-64
2021/03/06 13:31:02;;;;;;;;;;;11.40;46.30;;;;;;5055488;28;19951;-65
2021/03/06 13:33:29;;;;;;;;;;;11.20;46.80;;;;;;5057736;28;20011;-64
2021/03/06 13:35:55;;;;;;;;;;;11.30;46.50;;;;;;5057791;28;19929;-64
2021/03/06 13:38:21;;;;;;;;;;;11.10;46.60;;;;;;5057506;28;20343;-64
2021/03/06 13:40:48;;;;;;;;;;;11.00;54.90;;;;;;5058444;28;20287;-63
2021/03/06 13:43:14;;;;;;;;;;;11.10;49.30;;;;;;5057460;28;19924;-64
2021/03/06 13:45:40;;;;;;;;;;;10.70;47.80;;;;;;5057078;28;20441;-65
2021/03/06 13:48:07;;;;;;;;;;;10.60;52.80;;;;;;5057249;28;19970;-64
2021/03/06 13:50:33;;;;;;;;;;;10.90;48.40;;;;;;5063843;28;19924;-65
2021/03/06 13:53:00;;;;;;;;;;;11.00;47.00;;;;;;5059780;28;20395;-65
2021/03/06 13:55:26;;;;;;;;;;;11.00;46.50;;;;;;5057537;28;19986;-66
2021/03/06 13:57:53;;;;;;;;;;;11.10;48.10;;;;;;5057332;28;19979;-66
2021/03/06 14:00:19;;;;;;;;;;;11.20;47.40;;;;;;5057055;28;19925;-65
2021/03/06 14:02:46;;;;;;;;;;;11.30;46.70;;;;;;5057329;28;19932;-65
2021/03/06 14:05:12;;;;;;;;;;;11.00;46.30;;;;;;5057117;28;19924;-67
2021/03/06 14:07:38;;;;;;;;;;;11.00;47.00;;;;;;5056819;28;19951;-65
2021/03/06 14:10:05;;;;;;;;;;;10.80;46.00;;;;;;5056894;28;20292;-65
2021/03/06 14:12:31;;;;;;;;;;;10.80;47.70;;;;;;5057703;28;19925;-66
2021/03/06 14:14:58;;;;;;;;;;;11.30;57.70;;;;;;5056976;28;19928;-64
2021/03/06 14:17:24;;;;;;;;;;;11.60;56.70;;;;;;5056571;28;20380;-64
2021/03/06 14:19:50;;;;;;;;;;;11.80;55.30;;;;;;5056824;28;19925;-62
2021/03/06 14:22:16;;;;;;;;;;;12.10;53.60;;;;;;5056805;28;19979;-64
2021/03/06 14:24:42;;;;;;;;;;;12.40;55.00;;;;;;5056758;28;19926;-63
2021/03/06 14:27:08;;;;;;;;;;;12.90;52.80;;;;;;5056583;28;19925;-63
2021/03/06 14:29:34;;;;;;;;;;;13.20;53.00;;;;;;5056680;28;19928;-61
2021/03/06 14:32:01;;;;;;;;;;;13.40;54.80;;;;;;5056693;28;19924;-62
2021/03/06 14:34:27;;;;;;;;;;;13.10;44.70;;;;;;5057008;28;19929;-61
2021/03/06 14:36:54;;;;;;;;;;;13.20;46.60;;;;;;5056832;28;20393;-62
2021/03/06 14:39:20;;;;;;;;;;;13.10;44.70;;;;;;5056902;28;19925;-61
2021/03/06 14:41:46;;;;;;;;;;;12.70;44.20;;;;;;5056146;28;19932;-63
2021/03/06 14:44:12;;;;;;;;;;;12.90;45.10;;;;;;5056030;28;19932;-63
2021/03/06 14:46:39;;;;;;;;;;;12.60;44.00;;;;;;5057192;28;20272;-60
2021/03/06 14:49:06;;;;;;;;;;;12.30;46.00;;;;;;5056268;28;19925;-62
2021/03/06 14:51:33;;;;;;;;;;;12.20;46.70;;;;;;5056282;28;19940;-63
2021/03/06 14:53:59;;;;;;;;;;;12.40;46.70;;;;;;5056228;28;20268;-61
2021/03/06 14:56:25;;;;;;;;;;;12.30;48.40;;;;;;5055512;28;19925;-62
2021/03/06 14:58:51;;;;;;;;;;;12.40;44.50;;;;;;5055643;28;19974;-62
2021/03/06 15:01:17;;;;;;;;;;;12.10;44.70;;;;;;5060172;28;19928;-61
2021/03/06 15:03:43;;;;;;;;;;;11.90;43.70;;;;;;5061048;28;19932;-61
2021/03/06 15:06:10;;;;;;;;;;;11.80;44.70;;;;;;5058581;28;19932;-62
2021/03/06 15:08:36;;;;;;;;;;;11.80;45.60;;;;;;5054865;28;20379;-61
2021/03/06 15:11:03;;;;;;;;;;;11.30;44.80;;;;;;5055139;28;20303;-60
2021/03/06 15:13:29;;;;;;;;;;;11.10;47.50;;;;;;5055028;28;19935;-61
2021/03/06 15:15:55;;;;;;;;;;;11.40;51.70;;;;;;5054744;28;19925;-61
2021/03/06 15:18:21;;;;;;;;;;;11.70;54.70;;;;;;5055014;28;19925;-61
2021/03/06 15:20:47;;;;;;;;;;;11.80;48.30;;;;;;5055205;28;19932;-62
2021/03/06 15:23:15;;;;;;;;;;;11.90;49.60;;;;;;5054754;28;19924;-62
2021/03/06 15:25:41;;;;;;;;;;;12.10;49.10;;;;;;5054817;28;19931;-61
2021/03/06 15:28:07;;;;;;;;;;;12.10;47.10;;;;;;5054824;28;20136;-62
2021/03/06 15:30:33;;;;;;;;;;;12.10;47.10;;;;;;5054793;28;19925;-62
2021/03/06 15:32:59;;;;;;;;;;;11.80;43.80;;;;;;5054227;28;19932;-62
2021/03/06 15:35:25;;;;;;;;;;;11.80;44.80;;;;;;5054298;28;19925;-62
2021/03/06 15:37:53;;;;;;;;;;;11.60;43.80;;;;;;5054826;28;19925;-61
2021/03/06 15:40:21;;;;;;;;;;;11.40;43.90;;;;;;5054504;28;20283;-62
2021/03/06 15:42:47;;;;;;;;;;;11.20;44.50;;;;;;5054493;28;19970;-61
2021/03/06 15:45:13;;;;;;;;;;;11.00;45.10;;;;;;5054348;28;19971;-61
2021/03/06 15:47:39;;;;;;;;;;;10.80;42.50;;;;;;5054381;28;19924;-61
2021/03/06 15:50:06;;;;;;;;;;;10.50;43.10;;;;;;5053978;28;19932;-63
2021/03/06 15:52:32;;;;;;;;;;;10.40;43.10;;;;;;5054033;28;19929;-63
2021/03/06 15:54:58;;;;;;;;;;;10.20;43.60;;;;;;5053924;28;19924;-63
2021/03/06 15:57:25;;;;;;;;;;;10.00;44.70;;;;;;5054413;28;19925;-63
2021/03/06 15:59:51;;;;;;;;;;;9.70;46.80;;;;;;5054808;28;19925;-63
2021/03/06 16:02:17;;;;;;;;;;;9.40;45.90;;;;;;5053922;28;20422;-63
2021/03/06 16:04:43;;;;;;;;;;;9.40;46.50;;;;;;5053954;28;20395;-63
2021/03/06 16:07:10;;;;;;;;;;;9.30;47.10;;;;;;5054837;28;19951;-64
2021/03/06 16:09:36;;;;;;;;;;;9.20;47.00;;;;;;5054119;28;19924;-63
2021/03/06 16:12:02;;;;;;;;;;;9.10;46.40;;;;;;5054612;28;19925;-63
2021/03/06 16:14:29;;;;;;;;;;;9.00;47.10;;;;;;5054028;28;19929;-63
2021/03/06 16:16:56;;;;;;;;;;;8.90;47.40;;;;;;5054540;28;20283;-62
2021/03/06 16:19:22;;;;;;;;;;;8.80;46.70;;;;;;5054268;28;20386;-63
2021/03/06 16:21:48;;;;;;;;;;;8.70;46.40;;;;;;5055848;28;19929;-62
2021/03/06 16:24:14;;;;;;;;;;;8.60;46.70;;;;;;5054928;28;19925;-63
2021/03/06 16:26:40;;;;;;;;;;;8.50;46.50;;;;;;5060315;28;19924;-62
2021/03/06 16:29:06;;;;;;;;;;;8.50;46.90;;;;;;5064155;28;19924;-64
2021/03/06 16:31:33;;;;;;;;;;;8.30;47.00;;;;;;5063867;28;19932;-63
2021/03/06 16:34:01;;;;;;;;;;;8.30;47.80;;;;;;5059540;28;19932;-63
2021/03/06 16:36:27;;;;;;;;;;;8.30;48.40;;;;;;5054474;28;20325;-63
2021/03/06 16:38:54;;;;;;;;;;;8.20;48.20;;;;;;5054193;28;19925;-64
2021/03/06 16:41:20;;;;;;;;;;;8.20;48.20;;;;;;5054431;28;19925;-63
2021/03/06 16:43:46;;;;;;;;;;;8.20;48.00;;;;;;5053916;28;19925;-65
2021/03/06 16:46:12;;;;;;;;;;;8.10;48.10;;;;;;5054022;28;19983;-65
2021/03/06 16:48:39;;;;;;;;;;;7.90;49.00;;;;;;5054319;28;19929;-64
2021/03/06 16:51:05;;;;;;;;;;;7.90;48.80;;;;;;5054291;28;19925;-63
2021/03/06 16:53:31;;;;;;;;;;;7.90;49.10;;;;;;5054866;28;19928;-63
2021/03/06 16:55:57;;;;;;;;;;;7.80;48.90;;;;;;5054047;28;19935;-63
2021/03/06 16:58:24;;;;;;;;;;;7.70;48.20;;;;;;5054118;28;19932;-63
2021/03/06 17:00:50;;;;;;;;;;;7.70;48.40;;;;;;5053873;28;19925;-64
2021/03/06 17:03:16;;;;;;;;;;;7.60;48.50;;;;;;5053704;28;19979;-64
2021/03/06 17:05:43;;;;;;;;;;;7.60;49.40;;;;;;5054165;28;20310;-63
2021/03/06 17:08:09;;;;;;;;;;;7.60;53.80;;;;;;5057557;28;19925;-64
2021/03/06 17:10:35;;;;;;;;;;;7.40;49.60;;;;;;5057737;28;19925;-63
2021/03/06 17:13:01;;;;;;;;;;;7.40;48.90;;;;;;5057221;28;20395;-63
2021/03/06 17:15:27;;;;;;;;;;;7.30;49.50;;;;;;5057532;28;19929;-64
2021/03/06 17:17:54;;;;;;;;;;;7.30;49.60;;;;;;5057285;28;19931;-64
2021/03/06 17:20:20;;;;;;;;;;;7.30;50.00;;;;;;5057798;28;19925;-63
2021/03/06 17:22:47;;;;;;;;;;;7.10;49.90;;;;;;5057137;28;19974;-63
2021/03/06 17:25:14;;;;;;;;;;;7.00;48.90;;;;;;5057050;28;19940;-63
2021/03/06 17:27:40;;;;;;;;;;;7.00;49.40;;;;;;5057487;28;19986;-62
2021/03/06 17:30:07;;;;;;;;;;;6.90;48.80;;;;;;5057866;28;19974;-63
2021/03/06 17:32:33;;;;;;;;;;;6.90;51.40;;;;;;5057670;28;19925;-64
2021/03/06 17:34:59;;;;;;;;;;;6.90;49.80;;;;;;5057162;28;19925;-64
2021/03/06 17:37:26;;;;;;;;;;;6.80;49.80;;;;;;5057127;28;20019;-64
2021/03/06 17:39:52;;;;;;;;;;;6.80;49.90;;;;;;5057295;28;19978;-64
2021/03/06 17:42:18;;;;;;;;;;;6.80;49.30;;;;;;5057030;28;19925;-64
2021/03/06 17:44:44;;;;;;;;;;;6.70;48.80;;;;;;5056710;28;20414;-64
2021/03/06 17:47:10;;;;;;;;;;;6.70;48.80;;;;;;5057585;28;20315;-63
2021/03/06 17:49:37;;;;;;;;;;;6.60;49.30;;;;;;5057756;28;20295;-63
2021/03/06 17:52:03;;;;;;;;;;;6.60;48.80;;;;;;5057809;28;19955;-63
2021/03/06 17:54:29;;;;;;;;;;;6.60;49.10;;;;;;5057732;28;19935;-64
2021/03/06 17:56:56;;;;;;;;;;;6.50;49.30;;;;;;5057553;28;19925;-64
2021/03/06 17:59:22;;;;;;;;;;;6.50;49.60;;;;;;5057428;28;19925;-64
2021/03/06 18:01:48;;;;;;;;;;;6.40;49.30;;;;;;5057508;28;19929;-65
2021/03/06 18:04:14;;;;;;;;;;;6.30;49.80;;;;;;5057205;28;19929;-64
2021/03/06 18:06:40;;;;;;;;;;;6.20;49.70;;;;;;5063415;28;20375;-65
2021/03/06 18:09:08;;;;;;;;;;;6.20;50.10;;;;;;5065635;28;19925;-64
2021/03/06 18:11:34;;;;;;;;;;;6.20;50.80;;;;;;5062148;28;19957;-66
2021/03/06 18:14:01;;;;;;;;;;;6.20;50.30;;;;;;5057757;28;19924;-64
2021/03/06 18:16:27;;;;;;;;;;;6.10;50.30;;;;;;5056974;28;19925;-63
2021/03/06 18:18:53;;;;;;;;;;;6.00;50.90;;;;;;5057253;28;19940;-64
2021/03/06 18:21:19;;;;;;;;;;;6.00;51.00;;;;;;5056674;28;19928;-64
2021/03/06 18:23:45;;;;;;;;;;;6.00;51.20;;;;;;5056777;28;19925;-64
2021/03/06 18:26:11;;;;;;;;;;;5.90;51.60;;;;;;5056901;28;19925;-63
2021/03/06 18:28:37;;;;;;;;;;;5.90;51.50;;;;;;5056827;28;19924;-65
2021/03/06 18:31:04;;;;;;;;;;;5.80;51.50;;;;;;5056814;28;20402;-62
2021/03/06 18:33:30;;;;;;;;;;;5.70;52.10;;;;;;5056841;28;20342;-64
2021/03/06 18:35:56;;;;;;;;;;;5.70;52.60;;;;;;5056713;28;19925;-65
2021/03/06 18:38:22;;;;;;;;;;;5.50;52.90;;;;;;5056811;28;19932;-63
2021/03/06 18:40:48;;;;;;;;;;;5.50;53.80;;;;;;5056631;28;19932;-63
2021/03/06 18:43:14;;;;;;;;;;;5.50;54.00;;;;;;5056678;28;19932;-66
2021/03/06 18:45:40;;;;;;;;;;;5.40;53.50;;;;;;5056639;28;19925;-65
2021/03/06 18:48:08;;;;;;;;;;;5.30;53.70;;;;;;5056131;28;19925;-66
2021/03/06 18:50:35;;;;;;;;;;;5.40;54.10;;;;;;5056019;28;21407;-64
2021/03/06 18:53:02;;;;;;;;;;;5.30;54.40;;;;;;5056664;28;19932;-64
2021/03/06 18:55:28;;;;;;;;;;;5.30;54.30;;;;;;5056443;28;19928;-64
2021/03/06 18:57:54;;;;;;;;;;;5.30;53.80;;;;;;5056244;28;19932;-64
2021/03/06 19:00:21;;;;;;;;;;;5.20;53.60;;;;;;5056362;28;19970;-65
2021/03/06 19:02:48;;;;;;;;;;;5.20;54.50;;;;;;5056413;28;19925;-65
2021/03/06 19:05:16;;;;;;;;;;;5.20;54.00;;;;;;5058385;28;19925;-65
2021/03/06 19:07:42;;;;;;;;;;;5.20;54.40;;;;;;5057855;28;19925;-65
2021/03/06 19:10:09;;;;;;;;;;;5.10;55.10;;;;;;5056418;28;19939;-65
2021/03/06 19:12:35;;;;;;;;;;;5.00;55.30;;;;;;5055788;28;20402;-63
2021/03/06 19:15:02;;;;;;;;;;;5.00;55.20;;;;;;5056229;28;19924;-64
2021/03/06 19:17:28;;;;;;;;;;;5.00;55.00;;;;;;5055735;28;19978;-66
2021/03/06 19:19:54;;;;;;;;;;;5.00;54.70;;;;;;5055831;28;19929;-65